createdAt,value
2022-12-27T00:00:40.531Z,12.75
2022-12-27T00:04:22.303Z,10.15
2022-12-27T00:08:04.365Z,7.78
2022-12-27T00:11:46.162Z,6.60
2022-12-27T00:15:28.292Z,9.60
2022-12-27T00:19:10.099Z,9.45
2022-12-27T00:22:51.802Z,6.78
2022-12-27T00:26:35.129Z,6.95
2022-12-27T00:30:16.930Z,7.20
2022-12-27T00:34:00.938Z,7.22
2022-12-27T00:37:42.621Z,11.93
2022-12-27T00:41:24.888Z,6.72
2022-12-27T00:45:07.159Z,8.30
2022-12-27T00:48:49.029Z,8.35
2022-12-27T00:52:30.739Z,8.30
2022-12-27T00:56:27.066Z,8.30
2022-12-27T01:00:10.556Z,7.47
2022-12-27T01:03:53.351Z,7.72
2022-12-27T01:07:35.155Z,6.73
2022-12-27T01:11:18.112Z,11.30
2022-12-27T01:14:59.870Z,6.03
2022-12-27T01:18:41.665Z,6.93
2022-12-27T01:22:23.836Z,5.00
2022-12-27T01:26:08.837Z,7.40
2022-12-27T01:29:50.569Z,5.43
2022-12-27T01:33:32.414Z,6.43
2022-12-27T01:37:14.143Z,6.55
2022-12-27T01:40:55.843Z,4.82
2022-12-27T01:44:40.322Z,6.15
2022-12-27T01:48:24.521Z,5.53
2022-12-27T01:52:09.578Z,4.70
2022-12-27T01:55:54.082Z,5.40
2022-12-27T01:59:36.473Z,6.18
2022-12-27T02:03:37.429Z,7.45
2022-12-27T02:07:24.250Z,6.68
2022-12-27T02:11:08.954Z,5.45
2022-12-27T02:14:50.761Z,4.60
2022-12-27T02:18:32.470Z,7.32
2022-12-27T02:23:03.116Z,8.02
2022-12-27T02:26:47.676Z,6.28
2022-12-27T02:30:32.091Z,7.70
2022-12-27T02:34:26.232Z,10.48
2022-12-27T02:38:17.911Z,6.43
2022-12-27T02:42:19.839Z,5.03
2022-12-27T02:46:28.664Z,7.00
2022-12-27T02:50:30.995Z,5.07
2022-12-27T02:54:39.163Z,3.83
2022-12-27T02:58:26.706Z,5.00
2022-12-27T03:02:49.878Z,3.83
2022-12-27T03:06:57.672Z,3.95
2022-12-27T03:11:07.079Z,3.78
2022-12-27T03:15:09.658Z,4.43
2022-12-27T03:19:12.867Z,5.38
2022-12-27T03:23:15.415Z,4.45
2022-12-27T03:26:59.187Z,4.88
2022-12-27T03:31:00.996Z,4.47
2022-12-27T03:34:50.970Z,4.75
2022-12-27T03:38:37.585Z,3.83
2022-12-27T03:42:45.597Z,6.22
2022-12-27T03:46:34.652Z,4.05
2022-12-27T03:50:25.747Z,5.00
2022-12-27T03:54:34.782Z,8.18
2022-12-27T03:58:16.840Z,7.93
2022-12-27T04:02:00.996Z,4.80
2022-12-27T04:05:42.855Z,7.45
2022-12-27T04:09:43.156Z,5.70
2022-12-27T04:13:43.557Z,4.78
2022-12-27T04:17:44.202Z,5.28
2022-12-27T04:21:44.721Z,4.55
2022-12-27T04:25:45.004Z,4.30
2022-12-27T04:29:45.752Z,6.63
2022-12-27T04:33:46.136Z,8.05
2022-12-27T04:37:27.834Z,6.32
2022-12-27T04:41:28.129Z,5.00
2022-12-27T04:45:29.026Z,4.45
2022-12-27T04:49:38.887Z,5.35
2022-12-27T04:53:40.308Z,3.88
2022-12-27T04:57:22.018Z,5.63
2022-12-27T05:01:23.887Z,3.53
2022-12-27T05:05:09.477Z,5.32
2022-12-27T05:09:09.579Z,7.10
2022-12-27T05:13:09.961Z,4.97
2022-12-27T05:16:51.658Z,5.28
2022-12-27T05:20:36.436Z,4.75
2022-12-27T05:24:36.937Z,4.50
2022-12-27T05:28:18.628Z,3.88
2022-12-27T05:32:00.370Z,4.25
2022-12-27T05:35:42.598Z,4.07
2022-12-27T05:39:24.538Z,4.75
2022-12-27T05:43:06.324Z,6.10
2022-12-27T05:46:48.057Z,4.22
2022-12-27T05:50:29.889Z,5.35
2022-12-27T05:54:11.673Z,4.80
2022-12-27T05:57:53.473Z,4.00
2022-12-27T06:01:35.406Z,4.88
2022-12-27T06:05:17.541Z,5.45
2022-12-27T06:08:59.272Z,10.73
2022-12-27T06:12:41.086Z,3.80
2022-12-27T06:16:23.151Z,6.63
2022-12-27T06:20:05.418Z,6.97
2022-12-27T06:23:48.230Z,7.07
2022-12-27T06:27:29.936Z,7.97
2022-12-27T06:31:12.015Z,4.97
2022-12-27T06:34:53.748Z,6.10
2022-12-27T06:38:35.470Z,5.32
2022-12-27T06:42:17.462Z,5.70
2022-12-27T06:46:01.493Z,5.75
2022-12-27T06:49:43.343Z,10.13
2022-12-27T06:53:25.233Z,3.83
2022-12-27T06:57:06.971Z,9.73
2022-12-27T07:00:48.851Z,6.00
2022-12-27T07:04:30.700Z,8.20
2022-12-27T07:08:12.451Z,7.90
2022-12-27T07:11:54.217Z,5.82
2022-12-27T07:15:38.218Z,8.40
2022-12-27T07:19:19.970Z,4.53
2022-12-27T07:23:01.674Z,5.45
2022-12-27T07:26:43.401Z,5.55
2022-12-27T07:30:25.264Z,6.57
2022-12-27T07:34:07.028Z,6.85
2022-12-27T07:37:48.730Z,4.20
2022-12-27T07:41:30.501Z,6.75
2022-12-27T07:45:12.225Z,5.03
2022-12-27T07:48:56.052Z,4.82
2022-12-27T07:52:37.763Z,4.85
2022-12-27T07:56:26.155Z,10.80
2022-12-27T08:00:09.134Z,6.53
2022-12-27T08:03:51.133Z,4.32
2022-12-27T08:07:33.174Z,5.40
2022-12-27T08:11:14.919Z,5.53
2022-12-27T08:14:58.935Z,4.93
2022-12-27T08:18:41.066Z,6.88
2022-12-27T08:22:23.869Z,5.93
2022-12-27T08:26:07.413Z,7.03
2022-12-27T08:33:31.123Z,7.53
2022-12-27T08:37:12.918Z,6.45
2022-12-27T08:40:54.727Z,5.10
2022-12-27T08:44:36.439Z,5.25
2022-12-27T08:48:18.167Z,6.15
2022-12-27T08:51:59.940Z,9.07
2022-12-27T08:55:41.698Z,5.20
2022-12-27T08:59:23.416Z,5.57
2022-12-27T09:03:05.173Z,4.78
2022-12-27T09:06:47.199Z,6.85
2022-12-27T09:10:28.998Z,7.28
2022-12-27T09:14:10.826Z,6.18
2022-12-27T09:17:52.515Z,5.80
2022-12-27T09:21:35.409Z,9.82
2022-12-27T09:25:17.226Z,7.97
2022-12-27T09:29:00.140Z,6.57
2022-12-27T09:32:41.857Z,10.75
2022-12-27T09:36:26.223Z,9.32
2022-12-27T09:40:09.898Z,10.80
2022-12-27T09:44:04.807Z,7.53
2022-12-27T09:47:58.691Z,8.57
2022-12-27T09:51:58.033Z,11.27
2022-12-27T09:55:58.133Z,7.72
2022-12-27T09:59:46.209Z,12.90
2022-12-27T10:03:29.885Z,8.65
2022-12-27T10:07:28.876Z,12.25
2022-12-27T10:11:38.924Z,8.55
2022-12-27T10:15:30.551Z,8.40
2022-12-27T10:19:32.488Z,11.57
2022-12-27T10:23:22.604Z,9.63
2022-12-27T10:27:22.738Z,12.00
2022-12-27T10:31:05.035Z,6.88
2022-12-27T10:34:52.281Z,11.15
2022-12-27T10:38:34.732Z,11.30
2022-12-27T10:42:38.343Z,12.07
2022-12-27T10:46:28.939Z,11.98
2022-12-27T10:50:15.235Z,12.23
2022-12-27T10:54:02.711Z,12.02
2022-12-27T10:57:44.429Z,12.82
2022-12-27T11:01:29.399Z,16.60
2022-12-27T11:05:21.209Z,14.88
2022-12-27T11:09:26.829Z,13.95
2022-12-27T11:13:18.872Z,10.50
2022-12-27T11:17:00.593Z,18.70
2022-12-27T11:20:55.002Z,11.32
2022-12-27T11:24:37.423Z,15.65
2022-12-27T11:28:38.192Z,15.63
2022-12-27T11:32:23.337Z,15.93
2022-12-27T11:36:07.086Z,9.23
2022-12-27T11:39:55.141Z,14.18
2022-12-27T11:43:47.165Z,18.38
2022-12-27T11:47:42.024Z,13.63
2022-12-27T11:51:50.885Z,7.85
2022-12-27T11:55:51.432Z,10.77
2022-12-27T12:00:03.908Z,12.48
2022-12-27T12:04:23.340Z,13.18
2022-12-27T12:08:23.674Z,7.40
2022-12-27T12:12:28.871Z,8.00
2022-12-27T12:16:25.726Z,11.48
2022-12-27T12:20:31.865Z,9.80
2022-12-27T12:24:51.330Z,10.52
2022-12-27T12:28:58.250Z,9.57
2022-12-27T12:33:17.928Z,10.50
2022-12-27T12:37:24.699Z,12.20
2022-12-27T12:41:30.551Z,13.63
2022-12-27T12:45:24.585Z,11.68
2022-12-27T12:49:09.052Z,14.60
2022-12-27T12:53:15.079Z,8.80
2022-12-27T12:57:11.840Z,13.07
2022-12-27T13:00:59.504Z,9.18
2022-12-27T13:05:23.767Z,13.43
2022-12-27T13:09:40.469Z,12.40
2022-12-27T13:13:53.182Z,17.52
2022-12-27T13:17:40.996Z,14.48
2022-12-27T13:21:33.857Z,17.08
2022-12-27T13:25:27.503Z,10.63
2022-12-27T13:29:38.024Z,14.73
2022-12-27T13:33:25.797Z,22.58
2022-12-27T13:37:42.501Z,9.55
2022-12-27T13:41:32.179Z,13.32
2022-12-27T13:45:46.340Z,10.93
2022-12-27T13:49:51.214Z,16.00
2022-12-27T13:53:41.818Z,14.68
2022-12-27T13:57:59.494Z,16.50
2022-12-27T14:02:12.606Z,10.70
2022-12-27T14:05:57.223Z,9.70
2022-12-27T14:09:59.100Z,10.07
2022-12-27T14:13:43.899Z,10.77
2022-12-27T14:17:47.633Z,13.35
2022-12-27T14:25:53.090Z,11.88
2022-12-27T14:29:53.679Z,12.52
2022-12-27T14:33:53.422Z,7.43
2022-12-27T14:37:44.121Z,14.00
2022-12-27T14:41:41.128Z,15.93
2022-12-27T14:45:22.898Z,13.70
2022-12-27T14:49:23.376Z,15.73
2022-12-27T14:53:17.184Z,13.65
2022-12-27T14:57:08.141Z,18.73
2022-12-27T15:01:11.759Z,14.57
2022-12-27T15:09:17.920Z,14.35
2022-12-27T15:13:23.973Z,12.20
2022-12-27T15:17:52.980Z,15.55
2022-12-27T15:21:47.530Z,14.23
2022-12-27T15:25:41.168Z,12.00
2022-12-27T15:33:40.123Z,12.73
2022-12-27T15:38:02.994Z,14.85
2022-12-27T15:42:22.176Z,25.92
2022-12-27T15:46:23.185Z,13.95
2022-12-27T15:50:23.872Z,20.83
2022-12-27T15:54:08.454Z,22.15
2022-12-27T15:58:02.484Z,14.52
2022-12-27T16:01:44.828Z,11.52
2022-12-27T16:05:26.594Z,13.48
2022-12-27T16:09:23.850Z,17.92
2022-12-27T16:13:11.451Z,14.02
2022-12-27T16:16:56.420Z,12.27
2022-12-27T16:20:39.706Z,18.88
2022-12-27T16:24:26.738Z,17.00
2022-12-27T16:28:24.885Z,23.38
2022-12-27T16:32:16.453Z,19.80
2022-12-27T16:36:14.488Z,13.00
2022-12-27T16:40:03.849Z,14.38
2022-12-27T16:44:10.366Z,10.77
2022-12-27T16:47:58.005Z,13.80
2022-12-27T16:51:51.670Z,13.40
2022-12-27T16:56:04.578Z,14.02
2022-12-27T16:59:56.631Z,8.50
2022-12-27T17:03:43.192Z,12.27
2022-12-27T17:07:44.171Z,13.30
2022-12-27T17:11:30.513Z,13.10
2022-12-27T17:15:13.614Z,15.85
2022-12-27T17:19:07.204Z,13.32
2022-12-27T17:27:05.036Z,13.65
2022-12-27T17:31:20.859Z,17.02
2022-12-27T17:35:08.967Z,14.50
2022-12-27T17:39:12.548Z,12.38
2022-12-27T17:43:28.319Z,10.32
2022-12-27T17:47:41.119Z,17.98
2022-12-27T17:51:31.523Z,12.55
2022-12-27T17:55:39.735Z,14.20
2022-12-27T17:59:26.223Z,12.25
2022-12-27T18:03:11.859Z,15.75
2022-12-27T18:06:58.877Z,14.75
2022-12-27T18:10:41.890Z,14.23
2022-12-27T18:14:23.794Z,11.32
2022-12-27T18:18:08.290Z,14.10
2022-12-27T18:22:01.959Z,12.50
2022-12-27T18:25:43.626Z,12.40
2022-12-27T18:29:25.358Z,11.18
2022-12-27T18:33:10.455Z,11.25
2022-12-27T18:36:59.586Z,9.30
2022-12-27T18:40:42.245Z,8.52
2022-12-27T18:44:27.891Z,10.40
2022-12-27T18:48:12.139Z,18.27
2022-12-27T18:51:55.070Z,12.75
2022-12-27T18:55:36.872Z,14.93
2022-12-27T18:59:21.684Z,14.95
2022-12-27T19:03:19.230Z,10.60
2022-12-27T19:07:00.970Z,14.10
2022-12-27T19:10:51.403Z,12.48
2022-12-27T19:14:45.233Z,11.25
2022-12-27T19:18:31.104Z,12.05
2022-12-27T19:22:31.956Z,13.02
2022-12-27T19:26:16.627Z,9.98
2022-12-27T19:29:58.471Z,10.23
2022-12-27T19:33:40.368Z,11.85
2022-12-27T19:37:29.778Z,8.63
2022-12-27T19:41:17.814Z,8.68
2022-12-27T19:44:59.772Z,10.85
2022-12-27T19:48:41.862Z,5.80
2022-12-27T19:52:26.827Z,11.32
2022-12-27T19:56:09.261Z,9.55
2022-12-27T19:59:51.126Z,9.07
2022-12-27T20:03:33.018Z,9.63
2022-12-27T20:07:24.053Z,7.22
2022-12-27T20:11:11.139Z,9.50
2022-12-27T20:14:53.528Z,8.93
2022-12-27T20:18:36.611Z,5.57
2022-12-27T20:22:18.334Z,8.30
2022-12-27T20:26:00.120Z,7.50
2022-12-27T20:29:41.878Z,6.47
2022-12-27T20:33:23.655Z,6.63
2022-12-27T20:37:05.576Z,6.90
2022-12-27T20:40:47.355Z,5.13
2022-12-27T20:44:29.141Z,5.20
2022-12-27T20:48:11.164Z,5.65
2022-12-27T20:51:52.959Z,9.05
2022-12-27T20:55:34.829Z,5.07
2022-12-27T20:59:16.573Z,6.47
2022-12-27T21:02:58.320Z,6.32
2022-12-27T21:06:40.174Z,5.70
2022-12-27T21:10:21.941Z,5.82
2022-12-27T21:14:04.800Z,5.45
2022-12-27T21:17:46.596Z,8.65
2022-12-27T21:21:29.056Z,8.35
2022-12-27T21:25:11.033Z,6.87
2022-12-27T21:28:52.871Z,12.13
2022-12-27T21:32:34.591Z,7.20
2022-12-27T21:36:22.103Z,7.00
2022-12-27T21:40:04.181Z,7.22
2022-12-27T21:43:47.318Z,7.05
2022-12-27T21:47:31.255Z,8.80
2022-12-27T21:51:18.331Z,6.07
2022-12-27T21:55:00.102Z,5.78
2022-12-27T21:58:43.065Z,3.95
2022-12-27T22:02:24.987Z,6.78
2022-12-27T22:06:18.688Z,4.75
2022-12-27T22:10:00.412Z,4.07
2022-12-27T22:13:43.196Z,8.35
2022-12-27T22:17:25.026Z,5.22
2022-12-27T22:21:08.618Z,6.18
2022-12-27T22:24:50.334Z,4.53
2022-12-27T22:28:32.172Z,4.82
2022-12-27T22:32:22.746Z,5.05
2022-12-27T22:36:15.693Z,4.65
2022-12-27T22:39:57.417Z,5.85
2022-12-27T22:43:40.247Z,4.13
2022-12-27T22:47:26.913Z,5.85
2022-12-27T22:51:16.393Z,4.53
2022-12-27T22:55:05.687Z,4.38
2022-12-27T22:58:52.796Z,4.55
2022-12-27T23:02:34.735Z,2.90
2022-12-27T23:06:18.399Z,3.60
2022-12-27T23:10:00.255Z,2.80
2022-12-27T23:13:47.604Z,5.72
2022-12-27T23:17:29.362Z,5.38
2022-12-27T23:21:20.490Z,3.50
2022-12-27T23:25:05.451Z,4.32
2022-12-27T23:28:48.951Z,3.20
2022-12-27T23:32:32.512Z,6.40
2022-12-27T23:36:15.041Z,6.47
2022-12-27T23:39:59.490Z,3.60
2022-12-27T23:43:54.880Z,5.82
2022-12-27T23:47:38.332Z,4.97
2022-12-27T23:51:22.054Z,3.75
2022-12-27T23:55:04.367Z,3.13
2022-12-27T23:58:47.695Z,3.10
